Milford, Nebraska
Current Conditions -  °F | °C
As of 8:54 AM on Saturday 25 Oct 2014 (Local Time) from KLNK Reporting Station
Clear Clear  
Wind Chill: 46°   Ceiling: Unl
Heat Index: 48°   Visibility: 9mi
Dew Point: 44°   Wind: 5mph
Humidity: 86%   Direction: 360°N
Pressure: 30.12"   Gusts: NA
Location:  40.77°N, 97.05°W
Report Text: KLNK 251354Z 36004KT 9SM CLR 09/07 A3012 RMK AO2 SLP201 T00890067
Loading
Personal Weather Stations






























Interactive Weather Map
Tropical Storm Tracking
New forecast layout! Learn more

10-Day Weather Forecast

Advertisements
Track Severe Weather on mobile